createdAt,value
2023-04-02T00:10:28.332Z,93.49
2023-04-02T00:39:21.503Z,92.94
2023-04-02T01:08:17.687Z,93.59
2023-04-02T01:36:38.074Z,92.22
2023-04-02T02:05:22.737Z,93.03
2023-04-02T02:33:45.525Z,92.6
2023-04-02T03:02:14.613Z,94.22
2023-04-02T03:30:58.883Z,94.27
2023-04-02T03:59:43.372Z,95.29
2023-04-02T04:28:10.355Z,95.72
2023-04-02T04:57:02.377Z,95.91
2023-04-02T05:25:42.603Z,95.89
2023-04-02T05:54:34.872Z,96.66
2023-04-02T06:23:15.954Z,95.87
2023-04-02T06:51:48.992Z,94.59
2023-04-02T07:20:38.610Z,93.52
2023-04-02T07:49:17.407Z,90.79
2023-04-02T08:18:05.484Z,88.91
2023-04-02T08:46:51.316Z,87.3
2023-04-02T09:15:27.746Z,83.94
2023-04-02T09:44:17.479Z,78.16
2023-04-02T10:12:53.094Z,73.1
2023-04-02T10:41:29.327Z,71.25
2023-04-02T11:10:00.960Z,70.53
2023-04-02T11:38:41.415Z,70.99
2023-04-02T12:07:33.466Z,68.61
2023-04-02T12:36:20.601Z,73.99
2023-04-02T13:04:50.419Z,70.43
2023-04-02T13:33:46.198Z,69.21
2023-04-02T14:02:23.223Z,66.67
2023-04-02T14:30:59.065Z,66.61
2023-04-02T14:59:17.495Z,70.22
2023-04-02T15:27:41.506Z,68.42
2023-04-02T15:56:21.383Z,81.58
2023-04-02T16:24:55.706Z,83.6
2023-04-02T16:53:19.283Z,88.07
2023-04-02T17:21:59.372Z,89.69
2023-04-02T17:50:21.319Z,92.15
2023-04-02T18:18:54.699Z,92.2
2023-04-02T18:47:20.125Z,93.38
2023-04-02T19:16:04.994Z,92.68
2023-04-02T19:44:24.993Z,93.19
2023-04-02T20:13:07.357Z,91.86
2023-04-02T20:41:23.207Z,89
2023-04-02T21:09:48.567Z,84.55
2023-04-02T21:38:38.955Z,83
2023-04-02T22:07:08.758Z,81.47
2023-04-02T22:35:50.366Z,80.51
2023-04-02T23:04:32.825Z,79.7
2023-04-02T23:32:56.018Z,79.66
